Victor, California
Current Conditions -  °F | °C
As of 1:55 PM on Monday 20 Oct 2014 (Local Time) from KSCK Reporting Station
Broken Clouds Broken Clouds  
Wind Chill: 72°   Ceiling: 4000
Heat Index: 72°   Visibility: 10mi
Dew Point: 57°   Wind: 13mph
Humidity: 59%   Direction: 320°NW
Pressure: 29.93"   Gusts: NA
Location:  38.14°N, 121.2°W
Report Text: KSCK 202055Z 32011KT 10SM BKN040 22/14 A2993 RMK AO2 SLP136 T02220139 56006
Loading
Personal Weather Stations






























Interactive Weather Map
Tropical Storm Tracking
New forecast layout! Learn more

10-Day Weather Forecast

Advertisements
Track Severe Weather on mobile